Time;durP1;ratioP1;P1;durP2;ratioP2;P2;SDS_P1;SDS_P2;PMS_P1;PMS_P2;Temp;Humidity;BMP_temperature;BMP_pressure;BME280_temperature;BME280_humidity;BME280_pressure;Samples;Min_cycle;Max_cycle;Signal;HPM_P1;HPM_P2
2022/08/18 00:00:05;;;;;;;14.77;9.60;;;;;;;18.14;92.98;101415.28;5088616;28;20101;-76
2022/08/18 00:02:30;;;;;;;16.20;10.60;;;;;;;18.07;93.79;101411.75;5086717;28;20073;-76
2022/08/18 00:04:57;;;;;;;13.70;9.40;;;;;;;18.06;93.84;101410.91;5086821;28;20020;-76
2022/08/18 00:07:27;;;;;;;12.50;9.45;;;;;;;17.99;94.38;101412.06;5092502;28;20028;-76
2022/08/18 00:09:52;;;;;;;15.93;9.63;;;;;;;17.93;94.42;101407.44;5072549;28;20032;-75
2022/08/18 00:12:25;;;;;;;19.70;10.20;;;;;;;17.95;94.13;101408.06;5092522;28;20495;-76
2022/08/18 00:14:52;;;;;;;12.65;8.57;;;;;;;17.95;94.67;101417.22;5066295;28;20024;-76
2022/08/18 00:17:18;;;;;;;13.15;9.43;;;;;;;17.88;94.81;101416.44;5092489;28;20032;-76
2022/08/18 00:19:44;;;;;;;13.98;9.02;;;;;;;17.80;95.37;101427.00;5072892;28;20047;-75
2022/08/18 00:22:12;;;;;;;11.07;8.97;;;;;;;17.79;95.28;101430.84;5093036;28;20032;-76
2022/08/18 00:24:37;;;;;;;14.18;9.43;;;;;;;17.74;94.93;101427.91;5073509;28;20361;-76
2022/08/18 00:27:04;;;;;;;13.73;9.00;;;;;;;17.73;95.41;101432.63;5091377;28;20089;-77
2022/08/18 00:29:30;;;;;;;15.48;8.85;;;;;;;17.62;95.46;101418.66;5092355;28;20024;-76
2022/08/18 00:31:55;;;;;;;11.13;7.90;;;;;;;17.59;95.79;101430.19;5091552;28;20458;-75
2022/08/18 00:34:21;;;;;;;9.63;8.60;;;;;;;17.61;95.79;101422.53;5089166;28;20295;-75
2022/08/18 00:36:46;;;;;;;13.87;8.97;;;;;;;17.61;95.70;101428.91;5089637;28;20024;-76
2022/08/18 00:39:13;;;;;;;12.50;9.00;;;;;;;17.59;96.12;101432.97;5073735;28;20359;-76
2022/08/18 00:41:38;;;;;;;9.82;8.18;;;;;;;17.56;96.04;101422.38;5092656;28;20147;-76
2022/08/18 00:44:04;;;;;;;16.50;8.57;;;;;;;17.49;96.01;101433.50;5089225;28;20028;-76
2022/08/18 00:46:32;;;;;;;11.47;8.17;;;;;;;17.49;96.35;101440.94;5091703;28;20230;-77
2022/08/18 00:48:58;;;;;;;11.70;8.52;;;;;;;17.47;96.44;101443.13;5092512;28;20032;-76
2022/08/18 00:51:46;;;;;;;9.68;8.00;;;;;;;17.41;96.51;101435.72;5066250;28;20024;-77
2022/08/18 00:54:19;;;;;;;11.95;8.30;;;;;;;17.39;96.80;101426.81;5092465;28;20031;-76
2022/08/18 00:56:49;;;;;;;13.65;8.15;;;;;;;17.39;96.50;101435.09;5090207;28;20043;-75
2022/08/18 00:59:37;;;;;;;11.48;8.32;;;;;;;17.37;97.09;101440.84;5074211;28;20032;-75
2022/08/18 01:02:06;;;;;;;14.50;8.38;;;;;;;17.32;97.02;101450.88;5072225;28;20059;-74
2022/08/18 01:04:47;;;;;;;13.10;9.15;;;;;;;17.32;97.22;101456.41;5089149;28;20027;-77
2022/08/18 01:07:19;;;;;;;14.63;8.50;;;;;;;17.28;97.40;101449.66;5070567;28;20836;-75
2022/08/18 01:09:46;;;;;;;11.35;8.48;;;;;;;17.26;97.39;101455.41;5091599;28;20377;-75
2022/08/18 01:12:12;;;;;;;12.45;8.07;;;;;;;17.22;97.48;101459.72;5092376;28;20479;-76
2022/08/18 01:14:37;;;;;;;13.97;8.40;;;;;;;17.22;97.62;101464.38;5090459;28;20028;-76
2022/08/18 01:22:46;;;;;;;10.77;8.15;;;;;;;17.09;97.59;101462.59;5089515;28;20054;-75
2022/08/18 01:27:57;;;;;;;12.77;8.82;;;;;;;17.01;97.26;101459.22;5091359;28;20039;-74
2022/08/18 01:30:24;;;;;;;25.43;10.00;;;;;;;16.96;97.18;101464.63;5088627;28;20020;-74
2022/08/18 01:32:51;;;;;;;;;;;;;;;16.99;97.93;101466.91;5091293;28;20302;-74
2022/08/18 01:35:21;;;;;;;12.98;10.10;;;;;;;16.97;97.54;101474.59;5090682;28;19920;-76
2022/08/18 01:37:47;;;;;;;16.15;9.82;;;;;;;16.94;97.35;101477.81;5089485;28;20020;-76
2022/08/18 01:40:16;;;;;;;12.70;10.23;;;;;;;16.92;97.60;101472.50;5091865;28;20036;-76
2022/08/18 01:42:45;;;;;;;12.73;10.02;;;;;;;16.88;97.70;101464.88;5089834;28;20467;-75
2022/08/18 01:45:12;;;;;;;18.67;9.98;;;;;;;16.91;98.72;101465.25;5089777;28;20077;-76
2022/08/18 01:47:39;;;;;;;12.73;9.52;;;;;;;16.88;97.97;101462.09;5073243;28;20036;-76
2022/08/18 01:50:06;;;;;;;;;;;;;;;16.91;97.94;101464.44;5090480;28;20497;-76
2022/08/18 01:52:32;;;;;;;12.00;9.20;;;;;;;16.83;97.61;101473.00;5091041;28;19916;-76
2022/08/18 01:54:58;;;;;;;13.93;10.27;;;;;;;16.76;98.00;101467.50;5091020;28;20056;-76
2022/08/18 01:57:24;;;;;;;15.53;11.00;;;;;;;16.78;98.07;101470.03;5092646;28;20082;-76
2022/08/18 01:59:50;;;;;;;14.90;10.48;;;;;;;16.77;98.05;101463.69;5071355;28;20035;-77
2022/08/18 02:02:23;;;;;;;14.50;10.43;;;;;;;16.74;97.75;101472.41;5090743;28;20349;-76
2022/08/18 02:04:52;;;;;;;14.05;10.85;;;;;;;16.70;97.47;101467.56;5089739;28;20031;-76
2022/08/18 02:07:18;;;;;;;14.48;10.55;;;;;;;16.67;97.99;101466.06;5087495;28;20042;-76
2022/08/18 02:09:43;;;;;;;17.57;10.57;;;;;;;16.66;98.45;101458.00;5072232;28;20782;-76
2022/08/18 02:12:10;;;;;;;23.93;11.47;;;;;;;16.68;98.54;101458.59;5089064;28;20273;-75
2022/08/18 02:14:36;;;;;;;17.52;12.07;;;;;;;16.61;97.95;101458.66;5090552;28;20028;-76
2022/08/18 02:17:03;;;;;;;12.55;10.45;;;;;;;16.59;98.09;101471.84;5090218;28;20039;-76
2022/08/18 02:19:41;;;;;;;18.38;12.13;;;;;;;16.65;99.01;101475.66;5086729;28;20025;-75
2022/08/18 02:22:07;;;;;;;;;;;;;;;16.68;99.41;101470.53;5086965;28;20051;-75
2022/08/18 02:24:32;;;;;;;19.15;11.95;;;;;;;16.66;98.94;101469.88;5072740;28;19912;-75
2022/08/18 02:26:58;;;;;;;17.80;12.47;;;;;;;16.56;98.80;101472.31;5090428;28;20035;-76
2022/08/18 02:29:24;;;;;;;15.02;12.60;;;;;;;16.53;98.34;101474.66;5089832;28;20094;-75
2022/08/18 02:31:49;;;;;;;14.77;11.97;;;;;;;16.55;98.53;101458.69;5088605;28;20067;-76
2022/08/18 02:34:15;;;;;;;16.17;12.30;;;;;;;16.52;98.23;101457.22;5089354;28;20093;-76
2022/08/18 02:36:41;;;;;;;13.35;11.38;;;;;;;16.48;98.74;101458.72;5090862;28;20077;-76
2022/08/18 02:39:06;;;;;;;14.20;12.33;;;;;;;16.47;98.56;101461.69;5091365;28;21014;-75
2022/08/18 02:41:32;;;;;;;16.47;11.50;;;;;;;16.48;98.36;101463.44;5088770;28;20034;-76
2022/08/18 02:43:59;;;;;;;15.65;12.02;;;;;;;16.44;98.38;101459.41;5090089;28;20051;-75
2022/08/18 02:46:25;;;;;;;15.80;12.10;;;;;;;16.34;97.68;101465.34;5091548;28;20036;-76
2022/08/18 02:48:55;;;;;;;16.55;12.43;;;;;;;16.34;97.10;101467.28;5090954;28;20476;-75
2022/08/18 02:51:21;;;;;;;19.33;12.15;;;;;;;16.30;97.91;101460.47;5082526;28;20040;-76
2022/08/18 02:53:47;;;;;;;19.02;13.20;;;;;;;16.31;98.66;101463.03;5084963;28;20134;-76
2022/08/18 02:56:22;;;;;;;20.60;13.33;;;;;;;16.30;98.35;101471.53;5070739;28;20043;-75
2022/08/18 02:58:52;;;;;;;16.40;12.73;;;;;;;16.26;98.38;101470.28;5090567;28;20088;-75
2022/08/18 03:01:22;;;;;;;15.27;12.52;;;;;;;16.27;98.45;101455.41;5071883;28;20039;-76
2022/08/18 03:03:48;;;;;;;19.60;13.30;;;;;;;16.32;98.86;101458.38;5084846;28;20134;-75
2022/08/18 03:06:14;;;;;;;;;;;;;;;16.32;98.39;101463.91;5070910;28;20411;-74
2022/08/18 03:08:39;;;;;;;19.35;13.13;;;;;;;16.30;98.70;101460.47;5071723;28;19922;-77
2022/08/18 03:11:04;;;;;;;17.57;13.80;;;;;;;16.29;98.89;101459.66;5071236;28;20089;-74
2022/08/18 03:13:30;;;;;;;22.00;14.00;;;;;;;16.31;98.48;101456.63;5090249;28;20155;-75
2022/08/18 03:15:58;;;;;;;20.63;15.30;;;;;;;16.32;99.13;101461.13;5089374;28;20051;-76
2022/08/18 03:18:25;;;;;;;20.48;15.15;;;;;;;16.32;99.40;101469.41;5089940;28;20111;-76
2022/08/18 03:20:53;;;;;;;23.70;16.55;;;;;;;16.25;98.87;101465.81;5067893;28;20036;-76
2022/08/18 03:23:19;;;;;;;22.08;15.40;;;;;;;16.20;98.67;101473.91;5070226;28;20035;-77
2022/08/18 03:25:46;;;;;;;21.37;15.33;;;;;;;16.18;98.50;101465.84;5089822;28;20105;-75
2022/08/18 03:28:14;;;;;;;23.27;15.27;;;;;;;16.21;98.72;101472.84;5089268;28;20071;-76
2022/08/18 03:30:40;;;;;;;28.58;16.77;;;;;;;16.22;99.27;101474.56;5071176;28;20383;-77
2022/08/18 03:33:06;;;;;;;20.52;15.38;;;;;;;16.23;98.89;101470.72;5087864;28;20028;-77
2022/08/18 03:35:35;;;;;;;22.77;15.50;;;;;;;16.23;99.05;101470.72;5088597;28;20084;-75
2022/08/18 03:38:01;;;;;;;25.80;18.63;;;;;;;16.27;99.22;101472.81;5088597;28;20027;-75
2022/08/18 03:40:26;;;;;;;23.87;17.13;;;;;;;16.29;99.09;101475.38;5087819;28;20058;-75
2022/08/18 03:42:52;;;;;;;29.50;19.70;;;;;;;16.31;99.73;101470.47;5071175;28;20474;-76
2022/08/18 03:45:17;;;;;;;25.30;19.50;;;;;;;16.32;99.17;101475.78;5086504;28;20056;-76
2022/08/18 03:47:44;;;;;;;26.90;19.13;;;;;;;16.34;99.19;101475.56;5090093;28;20406;-76
2022/08/18 03:50:10;;;;;;;;;;;;;;;16.33;99.15;101480.25;5086796;28;20024;-76
2022/08/18 03:52:37;;;;;;;26.05;19.15;;;;;;;16.28;98.84;101479.22;5088724;28;19919;-76
2022/08/18 03:55:03;;;;;;;27.77;19.42;;;;;;;16.27;99.00;101477.53;5087168;28;20089;-76
2022/08/18 03:57:31;;;;;;;35.88;20.80;;;;;;;16.32;99.77;101484.06;5087357;28;20077;-77
2022/08/18 03:59:59;;;;;;;31.13;19.05;;;;;;;16.27;99.12;101483.88;5087456;28;20024;-76
2022/08/18 04:02:27;;;;;;;29.98;18.67;;;;;;;16.29;99.09;101484.53;5088129;28;20035;-76
2022/08/18 04:04:52;;;;;;;27.17;19.35;;;;;;;16.28;99.33;101479.22;5088222;28;20024;-76
2022/08/18 04:07:19;;;;;;;26.20;18.60;;;;;;;16.27;99.26;101480.28;5080534;28;20037;-75
2022/08/18 04:09:44;;;;;;;28.75;19.27;;;;;;;16.20;99.15;101465.63;5088964;28;20054;-74
2022/08/18 04:12:14;;;;;;;29.00;18.50;;;;;;;16.17;99.10;101471.59;5088794;28;20028;-76
2022/08/18 04:14:41;;;;;;;28.67;18.33;;;;;;;16.11;98.83;101469.72;5081739;28;20039;-76
2022/08/18 04:17:08;;;;;;;27.40;18.30;;;;;;;16.10;98.63;101459.69;5087940;28;20081;-75
2022/08/18 04:19:34;;;;;;;27.25;18.08;;;;;;;16.08;99.34;101459.94;5088213;28;20031;-75
2022/08/18 04:22:01;;;;;;;23.10;18.35;;;;;;;16.13;99.83;101459.28;5052397;28;20024;-75
2022/08/18 04:24:29;;;;;;;23.70;17.63;;;;;;;16.13;99.41;101459.28;5087539;28;20047;-76
2022/08/18 04:26:56;;;;;;;24.33;17.98;;;;;;;16.15;99.70;101459.91;5088149;28;20055;-75
2022/08/18 04:29:21;;;;;;;24.70;17.15;;;;;;;16.21;99.41;101464.56;5054511;28;20032;-76
2022/08/18 04:31:48;;;;;;;25.43;17.20;;;;;;;16.21;99.81;101457.13;5087752;28;20084;-75
2022/08/18 04:34:19;;;;;;;23.33;16.67;;;;;;;16.23;100.00;101466.03;5070436;28;20028;-75
2022/08/18 04:36:45;;;;;;;20.58;15.30;;;;;;;16.18;99.81;101456.72;5086024;28;20403;-74
2022/08/18 04:39:12;;;;;;;24.13;15.13;;;;;;;16.13;99.31;101465.66;5087953;28;20043;-75
2022/08/18 04:41:38;;;;;;;;;;;;;;;16.15;99.23;101466.28;5086893;28;20082;-75
2022/08/18 04:44:06;;;;;;;25.77;15.18;;;;;;;16.18;99.67;101473.28;5080528;28;19923;-75
2022/08/18 04:46:39;;;;;;;19.67;15.25;;;;;;;16.15;99.32;101477.34;5067319;28;20443;-75
2022/08/18 04:49:06;;;;;;;24.40;16.00;;;;;;;16.08;99.77;101475.66;5060613;28;20488;-75
2022/08/18 04:51:32;;;;;;;27.42;15.35;;;;;;;16.10;99.06;101490.09;5068494;28;20058;-76
2022/08/18 04:53:59;;;;;;;21.27;14.97;;;;;;;16.15;99.48;101502.22;5092002;28;20119;-77
2022/08/18 04:56:33;;;;;;;23.08;15.30;;;;;;;16.16;99.36;101489.25;5091683;28;20063;-76
2022/08/18 04:59:05;;;;;;;20.00;16.00;;;;;;;16.20;99.72;101488.59;5092443;28;20054;-75
2022/08/18 05:01:36;;;;;;;19.52;15.40;;;;;;;16.17;99.12;101488.19;5073350;28;20039;-75
2022/08/18 05:04:02;;;;;;;23.90;16.25;;;;;;;16.22;99.44;101502.22;5090984;28;20028;-76
2022/08/18 05:06:29;;;;;;;23.08;15.57;;;;;;;16.26;99.35;101492.38;5088015;28;20463;-75
2022/08/18 05:08:58;;;;;;;20.10;15.63;;;;;;;16.24;99.67;101500.06;5087918;28;20032;-75
2022/08/18 05:11:32;;;;;;;25.23;16.63;;;;;;;16.24;99.75;101489.88;5088546;28;20043;-75
2022/08/18 05:13:57;;;;;;;23.77;16.55;;;;;;;16.25;98.87;101494.31;5088926;28;20031;-75
2022/08/18 05:16:24;;;;;;;27.70;16.47;;;;;;;16.27;98.76;101489.41;5074092;28;20479;-75
2022/08/18 05:18:49;;;;;;;17.95;15.43;;;;;;;16.30;99.31;101490.91;5056783;28;20041;-75
2022/08/18 05:21:15;;;;;;;21.05;14.98;;;;;;;16.29;98.50;101489.19;5091307;28;20119;-75
2022/08/18 05:23:46;;;;;;;19.27;15.37;;;;;;;16.35;99.14;101491.09;5092374;28;20020;-75
2022/08/18 05:26:13;;;;;;;19.13;14.85;;;;;;;16.41;99.32;101482.81;5090860;28;20060;-76
2022/08/18 05:28:41;;;;;;;21.38;16.45;;;;;;;16.46;99.23;101487.66;5091064;28;20154;-76
2022/08/18 05:31:17;;;;;;;23.92;15.98;;;;;;;16.49;99.09;101488.06;5090408;28;20387;-75
2022/08/18 05:33:45;;;;;;;28.65;15.73;;;;;;;16.56;98.85;101494.44;5088383;28;20489;-75
2022/08/18 05:36:25;;;;;;;22.35;15.15;;;;;;;16.61;98.84;101497.41;5083679;28;20067;-77
2022/08/18 05:39:17;;;;;;;20.25;15.13;;;;;;;16.66;98.33;101500.31;5070345;28;20035;-77
2022/08/18 05:41:49;;;;;;;21.65;15.10;;;;;;;16.72;99.22;101490.31;5064610;28;20478;-76
2022/08/18 05:44:21;;;;;;;24.10;15.95;;;;;;;16.80;98.75;101490.88;5090227;28;20078;-76
2022/08/18 05:46:55;;;;;;;18.88;15.43;;;;;;;16.87;98.56;101485.31;5054489;28;20042;-75
2022/08/18 05:49:24;;;;;;;18.75;13.95;;;;;;;16.94;99.07;101495.28;5089317;28;20058;-76
2022/08/18 05:52:02;;;;;;;17.55;14.02;;;;;;;17.06;99.16;101487.94;5090208;28;20108;-75
2022/08/18 05:57:29;;;;;;;17.75;13.57;;;;;;;17.21;99.09;101484.84;5090661;28;20387;-77
2022/08/18 05:59:56;;;;;;;17.90;14.13;;;;;;;17.33;99.35;101491.34;5088676;28;20020;-75
2022/08/18 06:02:36;;;;;;;20.40;12.75;;;;;;;17.43;98.92;101489.81;5087790;28;20479;-78
2022/08/18 06:05:10;;;;;;;18.50;12.63;;;;;;;17.50;98.14;101487.81;5088896;28;20032;-77
2022/08/18 06:07:41;;;;;;;29.05;14.10;;;;;;;17.62;98.74;101490.72;5071905;28;20032;-76
2022/08/18 06:10:08;;;;;;;19.20;12.05;;;;;;;17.71;98.85;101489.34;5090570;28;20020;-76
2022/08/18 06:12:45;;;;;;;21.85;13.38;;;;;;;17.81;98.52;101484.97;5067954;28;20413;-76
2022/08/18 06:15:35;;;;;;;16.52;11.55;;;;;;;17.88;98.36;101484.91;5069290;28;20035;-77
2022/08/18 06:18:02;;;;;;;15.55;11.00;;;;;;;18.06;98.07;101482.16;5089793;28;20028;-78
2022/08/18 06:20:47;;;;;;;23.07;9.97;;;;;;;18.07;97.48;101479.16;5090708;28;20544;-77
2022/08/18 06:23:21;;;;;;;12.90;8.75;;;;;;;18.22;97.05;101478.75;5071915;28;20088;-76
2022/08/18 06:25:56;;;;;;;13.50;8.30;;;;;;;18.30;96.67;101487.59;5080381;28;20056;-77
2022/08/18 06:28:22;;;;;;;13.35;8.30;;;;;;;18.32;96.55;101481.88;5087437;28;20028;-78
2022/08/18 06:31:01;;;;;;;14.40;8.00;;;;;;;18.39;96.51;101486.25;5055292;28;20044;-79
2022/08/18 06:33:38;;;;;;;13.05;8.00;;;;;;;18.44;96.23;101486.41;5090217;28;20035;-79
2022/08/18 06:36:33;;;;;;;17.80;8.23;;;;;;;18.54;95.40;101486.72;5086931;28;20032;-79
2022/08/18 06:39:33;;;;;;;11.02;8.23;;;;;;;18.60;95.35;101490.47;5070116;28;20086;-79
2022/08/18 06:41:59;;;;;;;16.08;8.13;;;;;;;18.87;93.99;101498.19;5086911;28;20021;-78
2022/08/18 06:44:43;;;;;;;11.68;8.23;;;;;;;19.88;90.31;101501.66;5090397;28;20047;-78
2022/08/18 06:47:17;;;;;;;11.90;7.05;;;;;;;20.77;87.01;101488.94;5085441;28;20043;-78
2022/08/18 06:49:48;;;;;;;8.50;6.60;;;;;;;21.45;82.14;101498.03;5085969;28;20028;-79
2022/08/18 06:52:30;;;;;;;7.45;5.70;;;;;;;22.00;79.76;101495.34;5089471;28;20031;-79
2022/08/18 06:55:00;;;;;;;11.95;5.45;;;;;;;22.56;78.98;101503.44;5084602;28;20100;-79
2022/08/18 06:57:33;;;;;;;7.53;5.50;;;;;;;22.94;76.95;101504.16;5087283;28;20430;-80
2022/08/18 07:00:05;;;;;;;9.23;5.57;;;;;;;22.82;78.25;101508.22;5087167;28;20101;-78
2022/08/18 07:03:03;;;;;;;7.40;5.18;;;;;;;23.22;76.32;101503.09;5072632;28;20032;-79
2022/08/18 07:05:31;;;;;;;5.03;4.53;;;;;;;23.26;74.08;101505.09;5073629;28;20115;-79
2022/08/18 07:08:13;;;;;;;7.68;5.10;;;;;;;23.28;74.58;101516.88;5084205;28;20039;-79
2022/08/18 07:10:44;;;;;;;8.13;4.93;;;;;;;23.70;72.73;101516.97;5089142;28;20031;-79
2022/08/18 07:13:27;;;;;;;7.72;5.43;;;;;;;23.61;74.32;101515.78;5090045;28;20447;-79
2022/08/18 07:16:14;;;;;;;7.75;5.35;;;;;;;23.72;76.33;101515.59;5088858;28;20058;-79
2022/08/18 07:18:39;;;;;;;5.57;3.88;;;;;;;23.75;70.54;101519.81;5089969;28;20028;-78
2022/08/18 07:21:05;;;;;;;5.43;4.40;;;;;;;23.81;73.02;101529.94;5091030;28;20119;-78
2022/08/18 07:23:37;;;;;;;7.63;4.90;;;;;;;24.04;73.19;101524.84;5091146;28;20036;-78
2022/08/18 07:26:12;;;;;;;5.40;3.90;;;;;;;23.76;71.82;101533.56;5068059;28;20283;-78
2022/08/18 07:28:46;;;;;;;6.05;3.88;;;;;;;23.74;71.49;101523.75;5099927;28;20032;-78
2022/08/18 07:31:23;;;;;;;9.45;4.30;;;;;;;23.66;71.43;101532.59;5104866;28;20098;-79
2022/08/18 07:34:01;;;;;;;4.82;4.20;;;;;;;23.60;76.16;101533.69;5095275;28;20023;-78
2022/08/18 07:36:32;;;;;;;5.15;4.43;;;;;;;23.85;74.75;101542.31;5097349;28;20035;-78
2022/08/18 07:39:18;;;;;;;8.55;4.97;;;;;;;24.06;74.45;101535.78;5111992;28;20023;-77
2022/08/18 07:41:55;;;;;;;5.80;4.43;;;;;;;23.83;71.63;101539.75;5078306;28;20036;-78
2022/08/18 07:44:23;;;;;;;;;;;;;;;23.46;70.64;101544.47;5072968;28;20440;-77
2022/08/18 07:47:05;;;;;;;8.73;4.63;;;;;;;22.96;74.22;101543.03;5091658;28;20749;-76
2022/08/18 07:49:35;;;;;;;5.63;4.18;;;;;;;22.79;76.17;101543.09;5090844;28;20478;-77
2022/08/18 07:52:10;;;;;;;7.40;4.90;;;;;;;22.82;74.29;101541.75;5085730;28;20430;-77
2022/08/18 07:54:54;;;;;;;10.48;5.20;;;;;;;22.99;74.81;101543.34;5089100;28;20036;-78
2022/08/18 07:57:36;;;;;;;7.90;4.68;;;;;;;23.21;74.29;101540.56;5087778;28;20028;-77
2022/08/18 08:00:23;;;;;;;6.72;5.03;;;;;;;22.80;74.01;101532.78;5091191;28;20056;-77
2022/08/18 08:02:58;;;;;;;7.80;4.13;;;;;;;22.68;75.28;101540.47;5089580;28;20020;-77
2022/08/18 08:05:52;;;;;;;9.00;4.93;;;;;;;22.28;75.47;101545.44;5088248;28;20467;-77
2022/08/18 08:08:21;;;;;;;5.68;4.85;;;;;;;22.33;76.62;101549.16;5087915;28;20040;-77
2022/08/18 08:11:11;;;;;;;7.07;4.82;;;;;;;22.34;78.03;101542.47;5072485;28;20502;-78
2022/08/18 08:14:08;;;;;;;5.93;4.57;;;;;;;22.32;77.37;101538.25;5089989;28;20093;-77
2022/08/18 08:16:47;;;;;;;5.97;4.60;;;;;;;22.20;78.02;101541.13;5081446;28;20044;-77
2022/08/18 08:19:32;;;;;;;5.93;4.15;;;;;;;22.04;76.51;101538.41;5089185;28;20510;-80
2022/08/18 08:22:09;;;;;;;5.57;5.07;;;;;;;21.92;79.20;101538.47;5087861;28;20051;-77
2022/08/18 08:25:01;;;;;;;6.22;4.45;;;;;;;21.85;79.95;101536.97;5072116;28;20122;-77
2022/08/18 08:27:50;;;;;;;6.18;3.97;;;;;;;21.84;76.35;101540.84;5087595;28;20107;-78
2022/08/18 08:30:18;;;;;;;6.90;4.13;;;;;;;21.82;77.50;101540.28;5093445;28;20035;-78
2022/08/18 08:32:53;;;;;;;6.13;4.18;;;;;;;22.04;76.37;101541.19;5092902;28;20102;-76
2022/08/18 08:35:25;;;;;;;7.07;4.25;;;;;;;22.48;75.56;101545.78;5094336;28;20040;-78
2022/08/18 08:37:57;;;;;;;9.50;3.88;;;;;;;22.79;75.75;101550.66;5075856;28;20030;-77
2022/08/18 08:40:27;;;;;;;8.05;5.05;;;;;;;23.01;72.05;101545.91;5095491;28;20071;-77
2022/08/18 08:43:08;;;;;;;6.55;4.32;;;;;;;23.34;73.82;101551.31;5093850;28;21294;-76
2022/08/18 08:45:38;;;;;;;4.03;3.47;;;;;;;23.37;71.53;101546.03;5075315;28;20496;-75
2022/08/18 08:48:24;;;;;;;8.30;3.45;;;;;;;22.90;73.13;101532.91;5074350;28;20028;-77
2022/08/18 08:51:01;;;;;;;5.30;3.28;;;;;;;22.65;72.46;101540.97;5073615;28;20035;-77
2022/08/18 08:53:56;;;;;;;5.53;3.47;;;;;;;22.37;74.15;101535.53;5076374;28;20020;-78
2022/08/18 08:56:28;;;;;;;6.00;4.60;;;;;;;22.41;76.12;101526.38;5092078;28;20110;-77
2022/08/18 08:58:59;;;;;;;5.72;4.32;;;;;;;22.90;72.77;101532.91;5077490;28;20028;-76
2022/08/18 09:01:47;;;;;;;4.47;3.67;;;;;;;23.24;71.69;101540.03;5077006;28;20379;-76
2022/08/18 09:04:46;;;;;;;5.32;4.05;;;;;;;23.61;67.19;101544.59;5087805;28;20056;-76
2022/08/18 09:07:48;;;;;;;4.75;3.60;;;;;;;23.67;66.70;101551.94;5088805;28;20081;-75
2022/08/18 09:10:39;;;;;;;5.70;3.33;;;;;;;23.68;66.96;101545.22;5091736;28;20051;-76
2022/08/18 09:13:33;;;;;;;6.75;3.60;;;;;;;23.24;68.96;101545.63;5093295;28;20052;-76
2022/08/18 09:16:22;;;;;;;5.38;3.67;;;;;;;22.80;69.99;101549.56;5050547;28;20067;-76
2022/08/18 09:19:07;;;;;;;7.35;3.90;;;;;;;22.57;70.03;101555.41;5094697;28;20085;-76
2022/08/18 09:21:43;;;;;;;5.18;4.30;;;;;;;22.97;70.52;101544.72;5074192;28;20046;-76
2022/08/18 09:24:25;;;;;;;5.25;3.88;;;;;;;23.44;68.39;101543.03;5091443;28;20024;-76
2022/08/18 09:27:15;;;;;;;6.20;3.97;;;;;;;23.93;67.66;101548.28;5096739;28;20044;-77
2022/08/18 09:30:00;;;;;;;5.28;3.47;;;;;;;24.05;63.65;101543.31;5092690;28;20105;-76
2022/08/18 09:32:25;;;;;;;5.90;3.60;;;;;;;24.41;65.10;101542.44;5093898;28;20475;-77
2022/08/18 09:35:02;;;;;;;7.03;3.50;;;;;;;24.76;63.55;101539.84;5092540;28;20031;-75
2022/08/18 09:44:10;;;;;;;6.13;3.97;;;;;;;23.81;65.97;101538.34;5092322;28;20043;-76
2022/08/18 09:46:42;;;;;;;7.32;3.67;;;;;;;23.54;66.36;101548.72;5080389;28;20044;-75
2022/08/18 09:49:23;;;;;;;4.75;3.28;;;;;;;23.35;65.83;101536.22;5092099;28;20039;-75
2022/08/18 09:51:50;;;;;;;4.80;3.38;;;;;;;23.16;68.76;101534.88;5089934;28;20360;-74
2022/08/18 09:54:21;;;;;;;5.22;3.22;;;;;;;23.21;68.11;101529.38;5092093;28;20176;-76
2022/08/18 09:56:48;;;;;;;7.72;3.60;;;;;;;23.88;65.84;101525.84;5092385;28;20495;-75
2022/08/18 09:59:36;;;;;;;5.50;3.40;;;;;;;24.34;62.99;101518.59;5089068;28;20031;-76
2022/08/18 10:02:10;;;;;;;4.38;3.30;;;;;;;24.70;65.86;101514.88;5091790;28;20103;-77
2022/08/18 10:04:50;;;;;;;7.00;3.65;;;;;;;25.00;59.93;101517.78;5090147;28;20445;-76
2022/08/18 10:07:26;;;;;;;5.78;3.60;;;;;;;25.11;61.54;101517.53;5075820;28;20086;-76
2022/08/18 10:10:20;;;;;;;3.75;3.00;;;;;;;25.10;59.40;101515.00;5092679;28;20038;-77
2022/08/18 10:12:55;;;;;;;4.32;2.92;;;;;;;24.83;62.22;101518.03;5065385;28;20032;-77
2022/08/18 10:15:29;;;;;;;8.20;3.25;;;;;;;24.93;60.88;101511.59;5084021;28;20051;-76
2022/08/18 10:18:19;;;;;;;6.05;3.30;;;;;;;24.51;61.33;101520.09;5090988;28;20137;-76
2022/08/18 10:21:06;;;;;;;6.22;3.40;;;;;;;24.53;64.42;101525.41;5080483;28;20024;-77
2022/08/18 10:23:49;;;;;;;7.57;3.50;;;;;;;24.53;64.50;101523.44;5095143;28;20048;-77
2022/08/18 10:26:30;;;;;;;5.88;3.28;;;;;;;24.43;62.43;101519.78;5077143;28;20036;-76
2022/08/18 10:29:10;;;;;;;7.65;3.67;;;;;;;24.41;61.75;101514.44;5077795;28;20101;-76
2022/08/18 10:31:54;;;;;;;4.97;3.33;;;;;;;24.39;62.77;101513.84;5074660;28;20098;-75
2022/08/18 10:34:40;;;;;;;4.85;2.97;;;;;;;24.25;64.90;101523.00;5087628;28;20040;-75
2022/08/18 10:37:20;;;;;;;5.22;3.35;;;;;;;24.15;67.29;101521.00;5085738;28;20043;-74
2022/08/18 10:39:54;;;;;;;4.18;3.13;;;;;;;24.28;66.28;101520.50;5090151;28;20032;-75
2022/08/18 10:42:34;;;;;;;5.30;3.28;;;;;;;24.74;64.19;101514.06;5087108;28;20418;-75
2022/08/18 10:45:22;;;;;;;5.13;3.25;;;;;;;25.09;62.42;101524.53;5064495;28;20038;-75
2022/08/18 10:48:25;;;;;;;8.02;3.28;;;;;;;25.29;60.55;101522.66;5088038;28;20031;-75
2022/08/18 10:51:00;;;;;;;5.32;3.30;;;;;;;25.10;61.21;101523.41;5082789;28;20147;-76
2022/08/18 10:53:43;;;;;;;6.78;3.42;;;;;;;24.73;61.89;101517.97;5088931;28;20082;-77
2022/08/18 10:56:32;;;;;;;6.03;3.20;;;;;;;24.81;62.38;101528.66;5090488;28;20073;-75
2022/08/18 10:59:21;;;;;;;5.93;3.17;;;;;;;25.23;60.97;101520.09;5085553;28;20028;-74
2022/08/18 11:02:16;;;;;;;4.15;3.00;;;;;;;25.37;59.94;101521.25;5065815;28;20443;-74
2022/08/18 11:04:47;;;;;;;3.22;2.92;;;;;;;25.06;60.50;101520.31;5079355;28;20480;-75
2022/08/18 11:07:18;;;;;;;4.70;3.35;;;;;;;24.96;58.56;101514.69;5090313;28;20039;-76
2022/08/18 11:09:48;;;;;;;5.43;3.40;;;;;;;25.02;58.11;101523.97;5076162;28;20443;-74
2022/08/18 11:12:16;;;;;;;4.75;3.05;;;;;;;25.89;57.88;101511.47;5072003;28;20064;-75
2022/08/18 11:14:52;;;;;;;3.42;2.80;;;;;;;26.47;60.37;101508.00;5088954;28;20031;-75
2022/08/18 11:17:23;;;;;;;3.80;2.55;;;;;;;26.22;56.58;101507.22;5082482;28;20491;-75
2022/08/18 11:19:51;;;;;;;4.43;2.58;;;;;;;25.67;56.64;101504.47;5073483;28;20991;-75
2022/08/18 11:22:30;;;;;;;3.15;2.22;;;;;;;25.21;57.86;101509.16;5090362;28;20418;-75
2022/08/18 11:24:56;;;;;;;3.55;2.20;;;;;;;25.05;59.39;101510.25;5083815;28;20046;-75
2022/08/18 11:27:27;;;;;;;3.80;2.28;;;;;;;24.86;59.92;101497.81;5051810;28;20383;-74
2022/08/18 11:29:54;;;;;;;2.88;2.50;;;;;;;24.57;60.60;101502.19;5084002;28;20036;-74
2022/08/18 11:32:33;;;;;;;;;;;;;;;24.58;59.40;101503.91;5070946;28;20028;-75
2022/08/18 11:34:58;;;;;;;3.10;2.03;;;;;;;24.54;60.59;101497.13;5087788;28;20234;-76
2022/08/18 11:37:46;;;;;;;2.07;1.83;;;;;;;24.97;59.88;101501.53;5089280;28;20028;-76
2022/08/18 11:40:30;;;;;;;2.42;2.22;;;;;;;24.81;59.16;101494.19;5088358;28;20072;-76
2022/08/18 11:43:08;;;;;;;2.03;1.92;;;;;;;25.61;58.16;101491.56;5071519;28;20021;-76
2022/08/18 11:45:42;;;;;;;3.50;2.03;;;;;;;25.50;58.51;101492.66;5089921;28;20167;-76
2022/08/18 11:48:13;;;;;;;2.78;1.98;;;;;;;26.04;56.86;101482.56;5090136;28;20032;-76
2022/08/18 11:50:45;;;;;;;2.60;2.25;;;;;;;25.89;57.57;101476.94;5091384;28;20375;-75
2022/08/18 11:53:17;;;;;;;5.97;2.10;;;;;;;26.22;55.78;101477.19;5092002;28;20032;-76
2022/08/18 11:55:43;;;;;;;2.70;2.42;;;;;;;26.86;55.36;101471.59;5093026;28;20085;-76
2022/08/18 11:58:08;;;;;;;2.38;1.85;;;;;;;27.41;54.72;101474.06;5094499;28;20425;-76
2022/08/18 12:00:35;;;;;;;4.07;2.30;;;;;;;28.01;54.36;101467.94;5088341;28;20123;-76
2022/08/18 12:03:03;;;;;;;2.90;2.28;;;;;;;27.65;54.78;101472.19;5089435;28;20559;-74